sensor_id;sensor_type;location;lat;lon;timestamp;pressure;altitude;pressure_sealevel;temperature;humidity
64192;BME280;50497;50.720;-2.084;2022-07-09T00:01:16;103070.16;;;18.18;100.00
64192;BME280;50497;50.720;-2.084;2022-07-09T00:03:45;103072.97;;;18.16;100.00
64192;BME280;50497;50.720;-2.084;2022-07-09T00:06:15;103068.59;;;18.12;100.00
64192;BME280;50497;50.720;-2.084;2022-07-09T00:08:45;103071.31;;;18.12;100.00
64192;BME280;50497;50.720;-2.084;2022-07-09T00:11:15;103076.84;;;18.09;100.00
64192;BME280;50497;50.720;-2.084;2022-07-09T00:13:47;103082.41;;;18.06;100.00
64192;BME280;50497;50.720;-2.084;2022-07-09T00:16:16;103082.88;;;17.95;100.00
64192;BME280;50497;50.720;-2.084;2022-07-09T00:18:41;103074.41;;;18.03;100.00
64192;BME280;50497;50.720;-2.084;2022-07-09T00:21:07;103082.53;;;18.03;100.00
64192;BME280;50497;50.720;-2.084;2022-07-09T00:23:36;103077.44;;;17.95;100.00
64192;BME280;50497;50.720;-2.084;2022-07-09T00:26:02;103064.84;;;17.94;100.00
64192;BME280;50497;50.720;-2.084;2022-07-09T00:28:28;103070.56;;;17.86;100.00
64192;BME280;50497;50.720;-2.084;2022-07-09T00:30:56;103071.34;;;17.90;100.00
64192;BME280;50497;50.720;-2.084;2022-07-09T00:33:22;103070.56;;;17.86;100.00
64192;BME280;50497;50.720;-2.084;2022-07-09T00:35:56;103059.47;;;17.70;100.00
64192;BME280;50497;50.720;-2.084;2022-07-09T00:38:22;103078.22;;;17.75;100.00
64192;BME280;50497;50.720;-2.084;2022-07-09T00:40:53;103081.81;;;17.76;100.00
64192;BME280;50497;50.720;-2.084;2022-07-09T00:43:27;103080.94;;;17.75;100.00
64192;BME280;50497;50.720;-2.084;2022-07-09T00:45:56;103076.56;;;17.71;100.00
64192;BME280;50497;50.720;-2.084;2022-07-09T00:48:28;103080.19;;;17.71;100.00
64192;BME280;50497;50.720;-2.084;2022-07-09T00:51:01;103079.16;;;17.74;100.00
64192;BME280;50497;50.720;-2.084;2022-07-09T00:53:30;103072.19;;;17.68;100.00
64192;BME280;50497;50.720;-2.084;2022-07-09T00:56:03;103072.13;;;17.70;100.00
64192;BME280;50497;50.720;-2.084;2022-07-09T00:58:29;103072.94;;;17.72;100.00
64192;BME280;50497;50.720;-2.084;2022-07-09T01:00:58;103072.31;;;17.65;100.00
64192;BME280;50497;50.720;-2.084;2022-07-09T01:03:30;103068.97;;;17.59;100.00
64192;BME280;50497;50.720;-2.084;2022-07-09T01:06:08;103075.47;;;17.53;100.00
64192;BME280;50497;50.720;-2.084;2022-07-09T01:08:35;103063.19;;;17.44;100.00
64192;BME280;50497;50.720;-2.084;2022-07-09T01:11:07;103057.91;;;17.41;100.00
64192;BME280;50497;50.720;-2.084;2022-07-09T01:13:41;103051.84;;;17.34;100.00
64192;BME280;50497;50.720;-2.084;2022-07-09T01:16:13;103055.00;;;17.24;100.00
64192;BME280;50497;50.720;-2.084;2022-07-09T01:18:43;103060.75;;;17.14;100.00
64192;BME280;50497;50.720;-2.084;2022-07-09T01:21:09;103061.72;;;17.13;100.00
64192;BME280;50497;50.720;-2.084;2022-07-09T01:23:38;103062.34;;;17.20;100.00
64192;BME280;50497;50.720;-2.084;2022-07-09T01:26:12;103049.69;;;17.21;100.00
64192;BME280;50497;50.720;-2.084;2022-07-09T01:28:42;103041.88;;;17.13;100.00
64192;BME280;50497;50.720;-2.084;2022-07-09T01:31:12;103042.88;;;17.10;100.00
64192;BME280;50497;50.720;-2.084;2022-07-09T01:33:47;103053.59;;;17.13;100.00
64192;BME280;50497;50.720;-2.084;2022-07-09T01:36:13;103046.41;;;17.12;100.00
64192;BME280;50497;50.720;-2.084;2022-07-09T01:38:45;103044.09;;;17.02;100.00
64192;BME280;50497;50.720;-2.084;2022-07-09T01:41:11;103054.16;;;16.98;100.00
64192;BME280;50497;50.720;-2.084;2022-07-09T01:43:42;103054.09;;;16.99;100.00
64192;BME280;50497;50.720;-2.084;2022-07-09T01:46:20;103054.34;;;16.93;100.00
64192;BME280;50497;50.720;-2.084;2022-07-09T01:48:51;103048.03;;;16.93;100.00
64192;BME280;50497;50.720;-2.084;2022-07-09T01:51:17;103042.03;;;16.85;100.00
64192;BME280;50497;50.720;-2.084;2022-07-09T01:53:47;103055.50;;;16.86;100.00
64192;BME280;50497;50.720;-2.084;2022-07-09T01:56:22;103053.06;;;16.78;100.00
64192;BME280;50497;50.720;-2.084;2022-07-09T01:58:55;103054.81;;;16.79;100.00
64192;BME280;50497;50.720;-2.084;2022-07-09T02:01:26;103047.91;;;16.71;100.00
64192;BME280;50497;50.720;-2.084;2022-07-09T02:03:55;103061.09;;;16.80;100.00
64192;BME280;50497;50.720;-2.084;2022-07-09T02:06:29;103068.44;;;16.76;100.00
64192;BME280;50497;50.720;-2.084;2022-07-09T02:09:08;103077.59;;;16.72;100.00
64192;BME280;50497;50.720;-2.084;2022-07-09T02:11:42;103058.22;;;16.59;100.00
64192;BME280;50497;50.720;-2.084;2022-07-09T02:14:08;103057.25;;;16.62;100.00
64192;BME280;50497;50.720;-2.084;2022-07-09T02:16:40;103067.50;;;16.52;100.00
64192;BME280;50497;50.720;-2.084;2022-07-09T02:19:15;103077.22;;;16.58;100.00
64192;BME280;50497;50.720;-2.084;2022-07-09T02:21:45;103067.56;;;16.51;100.00
64192;BME280;50497;50.720;-2.084;2022-07-09T02:24:19;103076.84;;;16.43;100.00
64192;BME280;50497;50.720;-2.084;2022-07-09T02:26:45;103077.66;;;16.46;100.00
64192;BME280;50497;50.720;-2.084;2022-07-09T02:29:17;103081.47;;;16.38;100.00
64192;BME280;50497;50.720;-2.084;2022-07-09T02:31:48;103079.16;;;16.28;100.00
64192;BME280;50497;50.720;-2.084;2022-07-09T02:34:17;103085.53;;;16.25;100.00
64192;BME280;50497;50.720;-2.084;2022-07-09T02:36:44;103071.41;;;16.17;100.00
64192;BME280;50497;50.720;-2.084;2022-07-09T02:39:11;103084.56;;;16.28;100.00
64192;BME280;50497;50.720;-2.084;2022-07-09T02:41:43;103077.63;;;16.20;100.00
64192;BME280;50497;50.720;-2.084;2022-07-09T02:44:12;103078.50;;;16.21;100.00
64192;BME280;50497;50.720;-2.084;2022-07-09T02:46:40;103068.66;;;16.18;100.00
64192;BME280;50497;50.720;-2.084;2022-07-09T02:49:06;103086.75;;;16.16;100.00
64192;BME280;50497;50.720;-2.084;2022-07-09T02:51:34;103085.19;;;16.09;100.00
64192;BME280;50497;50.720;-2.084;2022-07-09T02:54:00;103078.06;;;16.06;100.00
64192;BME280;50497;50.720;-2.084;2022-07-09T02:56:28;103077.28;;;16.03;100.00
64192;BME280;50497;50.720;-2.084;2022-07-09T02:58:55;103075.47;;;16.03;100.00
64192;BME280;50497;50.720;-2.084;2022-07-09T03:01:32;103078.38;;;15.97;100.00
64192;BME280;50497;50.720;-2.084;2022-07-09T03:03:59;103077.53;;;15.95;100.00
64192;BME280;50497;50.720;-2.084;2022-07-09T03:06:26;103081.19;;;15.94;100.00
64192;BME280;50497;50.720;-2.084;2022-07-09T03:08:52;103087.59;;;15.90;100.00
64192;BME280;50497;50.720;-2.084;2022-07-09T03:11:25;103085.00;;;15.87;100.00
64192;BME280;50497;50.720;-2.084;2022-07-09T03:14:01;103079.59;;;15.87;100.00
64192;BME280;50497;50.720;-2.084;2022-07-09T03:16:31;103086.00;;;15.84;100.00
64192;BME280;50497;50.720;-2.084;2022-07-09T03:18:58;103079.00;;;15.79;100.00
64192;BME280;50497;50.720;-2.084;2022-07-09T03:21:33;103090.69;;;15.78;100.00
64192;BME280;50497;50.720;-2.084;2022-07-09T03:24:05;103089.03;;;15.72;100.00
64192;BME280;50497;50.720;-2.084;2022-07-09T03:26:38;103086.41;;;15.70;100.00
64192;BME280;50497;50.720;-2.084;2022-07-09T03:29:10;103091.91;;;15.67;100.00
64192;BME280;50497;50.720;-2.084;2022-07-09T03:31:37;103092.91;;;15.63;100.00
64192;BME280;50497;50.720;-2.084;2022-07-09T03:34:02;103087.69;;;15.57;100.00
64192;BME280;50497;50.720;-2.084;2022-07-09T03:36:28;103088.66;;;15.56;100.00
64192;BME280;50497;50.720;-2.084;2022-07-09T03:38:54;103100.22;;;15.60;100.00
64192;BME280;50497;50.720;-2.084;2022-07-09T03:41:24;103092.13;;;15.60;100.00
64192;BME280;50497;50.720;-2.084;2022-07-09T03:43:56;103086.78;;;15.58;100.00
64192;BME280;50497;50.720;-2.084;2022-07-09T03:46:29;103095.78;;;15.57;100.00
64192;BME280;50497;50.720;-2.084;2022-07-09T03:48:58;103079.00;;;15.49;100.00
64192;BME280;50497;50.720;-2.084;2022-07-09T03:51:28;103091.63;;;15.47;100.00
64192;BME280;50497;50.720;-2.084;2022-07-09T03:53:53;103097.75;;;15.52;100.00
64192;BME280;50497;50.720;-2.084;2022-07-09T03:56:25;103095.25;;;15.46;100.00
64192;BME280;50497;50.720;-2.084;2022-07-09T03:58:57;103100.66;;;15.46;100.00
64192;BME280;50497;50.720;-2.084;2022-07-09T04:01:34;103094.34;;;15.45;100.00
64192;BME280;50497;50.720;-2.084;2022-07-09T04:04:02;103095.44;;;15.40;100.00
64192;BME280;50497;50.720;-2.084;2022-07-09T04:06:35;103106.22;;;15.40;100.00
64192;BME280;50497;50.720;-2.084;2022-07-09T04:09:08;103104.63;;;15.34;100.00
64192;BME280;50497;50.720;-2.084;2022-07-09T04:11:42;103096.66;;;15.29;100.00
64192;BME280;50497;50.720;-2.084;2022-07-09T04:14:14;103110.06;;;15.32;100.00
64192;BME280;50497;50.720;-2.084;2022-07-09T04:16:48;103106.31;;;15.37;100.00
64192;BME280;50497;50.720;-2.084;2022-07-09T04:19:17;103095.94;;;15.23;100.00
64192;BME280;50497;50.720;-2.084;2022-07-09T04:21:48;103110.13;;;15.29;100.00
64192;BME280;50497;50.720;-2.084;2022-07-09T04:24:24;103105.66;;;15.28;100.00
64192;BME280;50497;50.720;-2.084;2022-07-09T04:26:55;103106.66;;;15.26;100.00
64192;BME280;50497;50.720;-2.084;2022-07-09T04:29:33;103102.13;;;15.26;100.00
64192;BME280;50497;50.720;-2.084;2022-07-09T04:32:02;103098.56;;;15.26;100.00
64192;BME280;50497;50.720;-2.084;2022-07-09T04:34:37;103090.47;;;15.26;100.00
64192;BME280;50497;50.720;-2.084;2022-07-09T04:37:14;103098.66;;;15.23;100.00
64192;BME280;50497;50.720;-2.084;2022-07-09T04:39:45;103108.69;;;15.18;100.00
64192;BME280;50497;50.720;-2.084;2022-07-09T04:42:17;103112.25;;;15.18;100.00
64192;BME280;50497;50.720;-2.084;2022-07-09T04:44:52;103112.25;;;15.18;100.00
64192;BME280;50497;50.720;-2.084;2022-07-09T04:47:27;103114.88;;;15.21;100.00
64192;BME280;50497;50.720;-2.084;2022-07-09T04:50:01;103116.72;;;15.19;100.00
64192;BME280;50497;50.720;-2.084;2022-07-09T04:52:34;103101.47;;;15.18;100.00
64192;BME280;50497;50.720;-2.084;2022-07-09T04:55:07;103106.78;;;15.21;100.00
64192;BME280;50497;50.720;-2.084;2022-07-09T04:57:39;103100.50;;;15.21;100.00
64192;BME280;50497;50.720;-2.084;2022-07-09T05:00:10;103112.97;;;15.25;100.00
64192;BME280;50497;50.720;-2.084;2022-07-09T05:02:40;103112.91;;;15.26;100.00
64192;BME280;50497;50.720;-2.084;2022-07-09T05:05:08;103109.16;;;15.32;100.00
64192;BME280;50497;50.720;-2.084;2022-07-09T05:07:37;103108.19;;;15.34;100.00
64192;BME280;50497;50.720;-2.084;2022-07-09T05:10:11;103099.75;;;15.45;100.00
64192;BME280;50497;50.720;-2.084;2022-07-09T05:12:40;103114.06;;;15.49;100.00
64192;BME280;50497;50.720;-2.084;2022-07-09T05:15:08;103111.25;;;15.52;100.00
64192;BME280;50497;50.720;-2.084;2022-07-09T05:17:39;103103.16;;;15.52;100.00
64192;BME280;50497;50.720;-2.084;2022-07-09T05:20:09;103112.78;;;15.61;100.00
64192;BME280;50497;50.720;-2.084;2022-07-09T05:22:43;103110.94;;;15.63;100.00
64192;BME280;50497;50.720;-2.084;2022-07-09T05:25:14;103112.44;;;15.71;100.00
64192;BME280;50497;50.720;-2.084;2022-07-09T05:27:47;103119.59;;;15.74;100.00
64192;BME280;50497;50.720;-2.084;2022-07-09T05:30:16;103120.41;;;15.78;100.00
64192;BME280;50497;50.720;-2.084;2022-07-09T05:32:48;103117.38;;;15.87;100.00
64192;BME280;50497;50.720;-2.084;2022-07-09T05:35:21;103121.81;;;15.89;100.00
64192;BME280;50497;50.720;-2.084;2022-07-09T05:37:51;103120.78;;;15.94;100.00
64192;BME280;50497;50.720;-2.084;2022-07-09T05:40:16;103117.19;;;15.93;100.00
64192;BME280;50497;50.720;-2.084;2022-07-09T05:42:46;103098.94;;;16.01;100.00
64192;BME280;50497;50.720;-2.084;2022-07-09T05:45:18;103096.81;;;16.11;100.00
64192;BME280;50497;50.720;-2.084;2022-07-09T05:47:52;103105.78;;;16.12;100.00
64192;BME280;50497;50.720;-2.084;2022-07-09T05:50:25;103099.31;;;16.17;100.00
64192;BME280;50497;50.720;-2.084;2022-07-09T05:52:54;103100.91;;;16.23;100.00
64192;BME280;50497;50.720;-2.084;2022-07-09T05:55:33;103098.91;;;16.30;100.00
64192;BME280;50497;50.720;-2.084;2022-07-09T05:58:03;103107.53;;;16.41;100.00
64192;BME280;50497;50.720;-2.084;2022-07-09T06:00:36;103094.94;;;16.40;100.00
64192;BME280;50497;50.720;-2.084;2022-07-09T06:03:08;103111.41;;;16.59;100.00
64192;BME280;50497;50.720;-2.084;2022-07-09T06:05:42;103116.47;;;16.68;100.00
64192;BME280;50497;50.720;-2.084;2022-07-09T06:08:16;103123.44;;;16.75;100.00
64192;BME280;50497;50.720;-2.084;2022-07-09T06:10:42;103118.28;;;16.94;100.00
64192;BME280;50497;50.720;-2.084;2022-07-09T06:13:11;103116.84;;;17.09;100.00
64192;BME280;50497;50.720;-2.084;2022-07-09T06:15:41;103124.63;;;17.42;100.00
64192;BME280;50497;50.720;-2.084;2022-07-09T06:18:11;103119.63;;;18.01;100.00
64192;BME280;50497;50.720;-2.084;2022-07-09T06:20:40;103121.84;;;18.56;100.00
64192;BME280;50497;50.720;-2.084;2022-07-09T06:23:19;103109.59;;;19.09;100.00
64192;BME280;50497;50.720;-2.084;2022-07-09T06:25:53;103101.13;;;19.92;100.00
64192;BME280;50497;50.720;-2.084;2022-07-09T06:28:24;103111.72;;;20.16;100.00
64192;BME280;50497;50.720;-2.084;2022-07-09T06:30:56;103109.69;;;20.56;100.00
64192;BME280;50497;50.720;-2.084;2022-07-09T06:33:25;103107.75;;;20.93;100.00
64192;BME280;50497;50.720;-2.084;2022-07-09T06:35:54;103116.66;;;21.30;100.00
64192;BME280;50497;50.720;-2.084;2022-07-09T06:38:27;103098.88;;;20.90;100.00
64192;BME280;50497;50.720;-2.084;2022-07-09T06:40:55;103106.63;;;21.31;100.00
64192;BME280;50497;50.720;-2.084;2022-07-09T06:43:28;103108.47;;;21.30;100.00
64192;BME280;50497;50.720;-2.084;2022-07-09T06:45:58;103114.59;;;21.51;100.00
64192;BME280;50497;50.720;-2.084;2022-07-09T06:48:26;103107.53;;;22.11;100.00
64192;BME280;50497;50.720;-2.084;2022-07-09T06:50:56;103090.16;;;22.28;100.00
64192;BME280;50497;50.720;-2.084;2022-07-09T06:53:23;103100.47;;;22.23;100.00
64192;BME280;50497;50.720;-2.084;2022-07-09T06:55:54;103098.72;;;22.38;100.00
64192;BME280;50497;50.720;-2.084;2022-07-09T06:58:22;103108.63;;;21.92;100.00
64192;BME280;50497;50.720;-2.084;2022-07-09T07:00:54;103107.91;;;22.05;100.00
64192;BME280;50497;50.720;-2.084;2022-07-09T07:03:27;103094.63;;;22.75;100.00
64192;BME280;50497;50.720;-2.084;2022-07-09T07:05:53;103096.16;;;23.10;100.00
64192;BME280;50497;50.720;-2.084;2022-07-09T07:08:18;103108.56;;;22.40;100.00
64192;BME280;50497;50.720;-2.084;2022-07-09T07:10:50;103107.59;;;22.86;100.00
64192;BME280;50497;50.720;-2.084;2022-07-09T07:13:30;103114.56;;;23.20;100.00
64192;BME280;50497;50.720;-2.084;2022-07-09T07:15:56;103118.78;;;22.37;100.00
64192;BME280;50497;50.720;-2.084;2022-07-09T07:18:24;103111.28;;;22.24;100.00
64192;BME280;50497;50.720;-2.084;2022-07-09T07:20:57;103102.03;;;22.87;100.00
64192;BME280;50497;50.720;-2.084;2022-07-09T07:23:32;103116.59;;;22.58;100.00
64192;BME280;50497;50.720;-2.084;2022-07-09T07:26:05;103110.09;;;23.19;100.00
64192;BME280;50497;50.720;-2.084;2022-07-09T07:28:38;103099.78;;;22.94;100.00
64192;BME280;50497;50.720;-2.084;2022-07-09T07:31:06;103100.97;;;22.90;100.00
64192;BME280;50497;50.720;-2.084;2022-07-09T07:33:35;103104.31;;;23.38;100.00
64192;BME280;50497;50.720;-2.084;2022-07-09T07:36:09;103100.69;;;23.94;100.00
64192;BME280;50497;50.720;-2.084;2022-07-09T07:38:35;103103.56;;;23.78;100.00
64192;BME280;50497;50.720;-2.084;2022-07-09T07:41:11;103105.06;;;24.11;100.00
64192;BME280;50497;50.720;-2.084;2022-07-09T07:43:49;103104.25;;;23.96;100.00
64192;BME280;50497;50.720;-2.084;2022-07-09T07:46:21;103108.91;;;23.94;100.00
64192;BME280;50497;50.720;-2.084;2022-07-09T07:48:48;103101.69;;;24.20;100.00
64192;BME280;50497;50.720;-2.084;2022-07-09T07:51:24;103100.63;;;24.76;100.00
64192;BME280;50497;50.720;-2.084;2022-07-09T07:53:52;103098.63;;;25.03;100.00
64192;BME280;50497;50.720;-2.084;2022-07-09T07:56:35;103101.72;;;24.73;100.00
64192;BME280;50497;50.720;-2.084;2022-07-09T07:59:08;103094.94;;;24.79;100.00
64192;BME280;50497;50.720;-2.084;2022-07-09T08:01:47;103096.91;;;25.15;100.00
64192;BME280;50497;50.720;-2.084;2022-07-09T08:04:16;103090.50;;;24.50;100.00
64192;BME280;50497;50.720;-2.084;2022-07-09T08:06:58;103085.38;;;25.10;100.00
64192;BME280;50497;50.720;-2.084;2022-07-09T08:09:26;103093.84;;;25.94;100.00
64192;BME280;50497;50.720;-2.084;2022-07-09T08:12:05;103087.56;;;25.80;100.00
64192;BME280;50497;50.720;-2.084;2022-07-09T08:14:32;103077.44;;;26.29;100.00
64192;BME280;50497;50.720;-2.084;2022-07-09T08:17:05;103083.88;;;26.52;100.00
64192;BME280;50497;50.720;-2.084;2022-07-09T08:19:34;103082.41;;;26.60;100.00
64192;BME280;50497;50.720;-2.084;2022-07-09T08:22:08;103081.38;;;27.19;98.64
64192;BME280;50497;50.720;-2.084;2022-07-09T08:24:38;103086.59;;;26.77;98.20
64192;BME280;50497;50.720;-2.084;2022-07-09T08:27:07;103077.00;;;26.94;96.12
64192;BME280;50497;50.720;-2.084;2022-07-09T08:29:36;103077.25;;;27.13;97.03
64192;BME280;50497;50.720;-2.084;2022-07-09T08:32:07;103079.13;;;27.24;94.08
64192;BME280;50497;50.720;-2.084;2022-07-09T08:34:33;103069.66;;;27.39;93.89
64192;BME280;50497;50.720;-2.084;2022-07-09T08:37:01;103070.03;;;27.35;92.93
64192;BME280;50497;50.720;-2.084;2022-07-09T08:39:31;103061.63;;;27.25;94.05
64192;BME280;50497;50.720;-2.084;2022-07-09T08:42:02;103075.47;;;26.89;95.24
64192;BME280;50497;50.720;-2.084;2022-07-09T08:44:42;103074.13;;;27.29;93.15
64192;BME280;50497;50.720;-2.084;2022-07-09T08:47:15;103060.41;;;27.29;92.40
64192;BME280;50497;50.720;-2.084;2022-07-09T08:49:54;103062.03;;;28.19;86.33
64192;BME280;50497;50.720;-2.084;2022-07-09T08:52:26;103066.63;;;28.30;87.97
64192;BME280;50497;50.720;-2.084;2022-07-09T08:55:03;103074.47;;;28.55;85.54
64192;BME280;50497;50.720;-2.084;2022-07-09T08:57:34;103073.31;;;29.00;85.01
64192;BME280;50497;50.720;-2.084;2022-07-09T09:00:11;103073.72;;;29.26;80.31
64192;BME280;50497;50.720;-2.084;2022-07-09T09:02:49;103076.44;;;29.57;78.12
64192;BME280;50497;50.720;-2.084;2022-07-09T09:05:23;103082.72;;;29.28;78.18
64192;BME280;50497;50.720;-2.084;2022-07-09T09:07:49;103072.00;;;27.99;79.43
64192;BME280;50497;50.720;-2.084;2022-07-09T09:10:25;103077.13;;;28.57;78.62
64192;BME280;50497;50.720;-2.084;2022-07-09T09:13:04;103076.16;;;27.93;82.65
64192;BME280;50497;50.720;-2.084;2022-07-09T09:15:33;103068.03;;;28.45;78.71
64192;BME280;50497;50.720;-2.084;2022-07-09T09:18:05;103078.50;;;28.93;78.01
64192;BME280;50497;50.720;-2.084;2022-07-09T09:20:31;103066.09;;;28.36;76.30
64192;BME280;50497;50.720;-2.084;2022-07-09T09:22:57;103073.88;;;29.25;74.57
64192;BME280;50497;50.720;-2.084;2022-07-09T09:25:30;103061.88;;;29.05;72.51
64192;BME280;50497;50.720;-2.084;2022-07-09T09:28:01;103058.16;;;28.85;71.18
64192;BME280;50497;50.720;-2.084;2022-07-09T09:30:31;103061.19;;;28.82;75.46
64192;BME280;50497;50.720;-2.084;2022-07-09T09:33:03;103066.00;;;29.20;74.70
64192;BME280;50497;50.720;-2.084;2022-07-09T09:35:34;103067.97;;;29.08;72.39
64192;BME280;50497;50.720;-2.084;2022-07-09T09:38:10;103069.13;;;29.97;69.90
64192;BME280;50497;50.720;-2.084;2022-07-09T09:40:47;103065.00;;;29.21;70.92
64192;BME280;50497;50.720;-2.084;2022-07-09T09:43:20;103069.56;;;29.42;69.52
64192;BME280;50497;50.720;-2.084;2022-07-09T09:45:49;103057.06;;;30.47;64.83
64192;BME280;50497;50.720;-2.084;2022-07-09T09:48:21;103074.19;;;29.32;68.33
64192;BME280;50497;50.720;-2.084;2022-07-09T09:50:52;103059.72;;;29.39;71.56
64192;BME280;50497;50.720;-2.084;2022-07-09T09:53:24;103060.66;;;30.57;64.00
64192;BME280;50497;50.720;-2.084;2022-07-09T09:55:55;103066.56;;;30.82;65.34
64192;BME280;50497;50.720;-2.084;2022-07-09T09:58:22;103068.53;;;29.83;63.73
64192;BME280;50497;50.720;-2.084;2022-07-09T10:00:53;103062.72;;;30.35;63.91
64192;BME280;50497;50.720;-2.084;2022-07-09T10:03:19;103068.09;;;31.04;61.33
64192;BME280;50497;50.720;-2.084;2022-07-09T10:05:52;103073.25;;;29.72;65.18
64192;BME280;50497;50.720;-2.084;2022-07-09T10:08:18;103077.44;;;28.64;70.03
64192;BME280;50497;50.720;-2.084;2022-07-09T10:10:51;103070.38;;;28.29;73.39
64192;BME280;50497;50.720;-2.084;2022-07-09T10:13:22;103060.69;;;28.98;70.31
64192;BME280;50497;50.720;-2.084;2022-07-09T10:15:54;103064.47;;;30.07;64.10
64192;BME280;50497;50.720;-2.084;2022-07-09T10:18:26;103064.47;;;29.88;64.42
64192;BME280;50497;50.720;-2.084;2022-07-09T10:20:55;103050.31;;;30.59;60.55
64192;BME280;50497;50.720;-2.084;2022-07-09T10:23:30;103049.25;;;31.45;59.36
64192;BME280;50497;50.720;-2.084;2022-07-09T10:26:00;103048.59;;;31.97;58.41
64192;BME280;50497;50.720;-2.084;2022-07-09T10:28:25;103065.31;;;29.88;59.04
64192;BME280;50497;50.720;-2.084;2022-07-09T10:30:51;103058.78;;;30.38;62.41
64192;BME280;50497;50.720;-2.084;2022-07-09T10:33:23;103057.34;;;30.04;62.22
64192;BME280;50497;50.720;-2.084;2022-07-09T10:35:57;103062.94;;;29.54;64.48
64192;BME280;50497;50.720;-2.084;2022-07-09T10:38:36;103051.31;;;29.51;66.20
64192;BME280;50497;50.720;-2.084;2022-07-09T10:41:09;103046.03;;;28.24;66.99
64192;BME280;50497;50.720;-2.084;2022-07-09T10:43:53;103044.97;;;28.58;71.88
64192;BME280;50497;50.720;-2.084;2022-07-09T10:46:29;103047.06;;;28.75;69.58
64192;BME280;50497;50.720;-2.084;2022-07-09T10:49:03;103047.75;;;28.46;73.49
64192;BME280;50497;50.720;-2.084;2022-07-09T10:51:30;103047.72;;;28.58;75.58
64192;BME280;50497;50.720;-2.084;2022-07-09T10:54:06;103049.44;;;28.59;72.39
64192;BME280;50497;50.720;-2.084;2022-07-09T10:56:43;103052.03;;;29.53;71.27
64192;BME280;50497;50.720;-2.084;2022-07-09T10:59:27;103047.34;;;30.03;64.20
64192;BME280;50497;50.720;-2.084;2022-07-09T11:01:59;103033.25;;;29.87;65.30
64192;BME280;50497;50.720;-2.084;2022-07-09T11:04:30;103042.97;;;28.90;67.27
64192;BME280;50497;50.720;-2.084;2022-07-09T11:06:57;103044.16;;;29.38;67.38
64192;BME280;50497;50.720;-2.084;2022-07-09T11:09:26;103045.75;;;28.69;67.93
64192;BME280;50497;50.720;-2.084;2022-07-09T11:12:04;103044.69;;;28.91;71.82
64192;BME280;50497;50.720;-2.084;2022-07-09T11:14:41;103047.84;;;28.87;69.60
64192;BME280;50497;50.720;-2.084;2022-07-09T11:17:15;103041.53;;;29.87;64.56
64192;BME280;50497;50.720;-2.084;2022-07-09T11:19:49;103037.44;;;30.11;59.46
64192;BME280;50497;50.720;-2.084;2022-07-09T11:22:19;103038.56;;;29.59;61.21
64192;BME280;50497;50.720;-2.084;2022-07-09T11:24:51;103043.75;;;29.43;69.56
64192;BME280;50497;50.720;-2.084;2022-07-09T11:27:25;103045.41;;;28.93;67.34
64192;BME280;50497;50.720;-2.084;2022-07-09T11:30:07;103039.78;;;30.06;64.71
64192;BME280;50497;50.720;-2.084;2022-07-09T11:32:44;103027.38;;;30.96;55.91
64192;BME280;50497;50.720;-2.084;2022-07-09T11:35:29;103022.19;;;31.66;57.01
64192;BME280;50497;50.720;-2.084;2022-07-09T11:38:04;103031.53;;;30.72;58.52
64192;BME280;50497;50.720;-2.084;2022-07-09T11:40:47;103044.84;;;29.81;60.44
64192;BME280;50497;50.720;-2.084;2022-07-09T11:43:23;103037.59;;;30.19;60.98
64192;BME280;50497;50.720;-2.084;2022-07-09T11:46:03;103026.91;;;30.63;58.40
64192;BME280;50497;50.720;-2.084;2022-07-09T11:48:34;103016.13;;;31.35;53.69
64192;BME280;50497;50.720;-2.084;2022-07-09T11:51:05;103021.28;;;30.83;54.88
64192;BME280;50497;50.720;-2.084;2022-07-09T11:53:36;103024.06;;;30.06;58.87
64192;BME280;50497;50.720;-2.084;2022-07-09T11:56:17;103022.78;;;30.00;60.90
64192;BME280;50497;50.720;-2.084;2022-07-09T11:58:55;103020.56;;;29.55;61.38
64192;BME280;50497;50.720;-2.084;2022-07-09T12:01:25;103018.47;;;29.38;57.74
64192;BME280;50497;50.720;-2.084;2022-07-09T12:03:56;103012.66;;;28.90;62.91
64192;BME280;50497;50.720;-2.084;2022-07-09T12:06:30;103000.06;;;29.48;60.01
64192;BME280;50497;50.720;-2.084;2022-07-09T12:09:00;102998.59;;;30.89;55.86
64192;BME280;50497;50.720;-2.084;2022-07-09T12:11:30;102978.78;;;30.93;50.29
64192;BME280;50497;50.720;-2.084;2022-07-09T12:14:03;102993.22;;;31.43;51.56
64192;BME280;50497;50.720;-2.084;2022-07-09T12:16:29;102993.38;;;33.00;46.51
64192;BME280;50497;50.720;-2.084;2022-07-09T12:18:58;102992.94;;;32.52;47.06
64192;BME280;50497;50.720;-2.084;2022-07-09T12:21:32;102993.03;;;32.34;51.23
64192;BME280;50497;50.720;-2.084;2022-07-09T12:24:04;102985.84;;;32.05;47.57
64192;BME280;50497;50.720;-2.084;2022-07-09T12:26:43;102996.38;;;32.64;47.55
64192;BME280;50497;50.720;-2.084;2022-07-09T12:29:12;102986.44;;;32.35;44.82
64192;BME280;50497;50.720;-2.084;2022-07-09T12:31:48;102986.00;;;32.48;44.71
64192;BME280;50497;50.720;-2.084;2022-07-09T12:34:23;102980.31;;;32.76;42.59
64192;BME280;50497;50.720;-2.084;2022-07-09T12:36:59;102983.47;;;33.32;42.68
64192;BME280;50497;50.720;-2.084;2022-07-09T12:39:33;102984.78;;;33.79;40.81
64192;BME280;50497;50.720;-2.084;2022-07-09T12:42:03;102973.13;;;34.16;36.33
64192;BME280;50497;50.720;-2.084;2022-07-09T12:44:33;102974.38;;;34.30;41.08
64192;BME280;50497;50.720;-2.084;2022-07-09T12:47:05;102974.59;;;33.20;40.87
64192;BME280;50497;50.720;-2.084;2022-07-09T12:49:31;102977.94;;;32.89;41.56
64192;BME280;50497;50.720;-2.084;2022-07-09T12:51:59;102972.66;;;32.44;44.88
64192;BME280;50497;50.720;-2.084;2022-07-09T12:54:24;102981.53;;;32.03;44.78